Latest Weather Observations for Penrith

IDN60801

Issued at 9:22 pm EST Wednesday 5 August 2020 (issued every 10 minutes, with the page automatically refreshed every 10 minutes)

About weather observations | Map of weather stations | Latest weather observations for NSW | Other Formats
Station Details ID: 067113 Name: PENRITH LAKES AWS Lat: -33.72 Lon: 150.68 Height: 24.7 m
Data from the previous 72 hours. | See also: Recent months at Penrith
Date/Time
EST
Temp
°C
App
Temp
°C
Dew
Point
°C
Rel
Hum
%
Delta-T
°C
Wind Press
QNH
hPa
Press
MSL
hPa
Rain since
9am
mm
Dir  Spd
km/h
Gust
km/h
Spd
kts
Gust
kts
05/09:00pm 9.8 4.6 -2.5 42 4.7 WNW 15 20 8 11 - - 0.0
05/08:30pm 9.9 4.4 -2.1 43 4.6 WNW 17 22 9 12 - - 0.0
05/08:00pm 8.7 4.6 -3.2 43 4.4 NW 9 11 5 6 - - 0.0
05/07:30pm 10.0 6.2 -3.6 38 5.0 NW 7 15 4 8 - - 0.0
05/07:00pm 10.2 6.0 -3.5 38 5.1 NW 9 13 5 7 - - 0.0
05/06:30pm 10.8 6.0 -2.2 40 5.0 NW 13 17 7 9 - - 0.0
05/06:00pm 10.9 5.8 -1.8 41 4.9 NW 15 20 8 11 - - 0.0
05/05:30pm 11.3 6.3 -1.1 42 4.9 NW 15 19 8 10 - - 0.0
05/05:00pm 13.5 8.1 -4.2 29 6.7 WNW 15 19 8 10 - - 0.0
05/04:30pm 15.7 9.9 -4.2 25 7.7 NW 17 22 9 12 - - 0.0
05/04:00pm 16.9 11.9 -4.3 23 8.3 WNW 13 20 7 11 - - 0.0
05/03:30pm 17.4 11.9 -5.8 20 8.9 WNW 15 24 8 13 - - 0.0
05/03:00pm 18.1 13.2 -3.3 23 8.7 W 13 20 7 11 - - 0.0
05/02:30pm 18.1 13.0 -2.2 25 8.4 WNW 15 20 8 11 - - 0.0
05/02:00pm 18.2 14.0 -1.1 27 8.2 W 11 15 6 8 - - 0.0
05/01:30pm 17.6 12.2 -1.6 27 8.0 W 17 30 9 16 - - 0.0
05/01:00pm 17.1 12.5 -1.1 29 7.7 W 13 19 7 10 - - 0.0
05/12:30pm 16.8 11.1 -0.9 30 7.5 W 19 35 10 19 - - 0.0
05/12:00pm 15.9 10.4 -2.1 29 7.3 W 17 28 9 15 - - 0.0
05/11:30am 15.7 9.6 -2.3 29 7.3 W 20 32 11 17 - - 0.0
05/11:00am 15.1 9.6 -2.3 30 7.0 W 17 28 9 15 - - 0.0
05/10:30am 14.3 10.6 -2.6 31 6.7 SSW 7 17 4 9 - - 0.0
05/10:00am 13.3 9.8 -3.0 32 6.3 N 6 13 3 7 - - 0.0
05/09:30am 12.6 9.0 -2.1 36 5.8 ENE 7 15 4 8 - - 0.0
05/09:00am 10.8 5.9 -0.6 45 4.6 NNE 15 20 8 11 - - 0.0
05/08:30am 9.1 5.5 0.8 56 3.4 NNE 9 13 5 7 - - 0.0
05/08:00am 6.7 2.1 1.6 70 2.1 NE 15 19 8 10 - - 0.0
05/07:30am 5.2 1.4 2.0 80 1.3 NNW 11 19 6 10 - - 0.0
05/07:00am 3.5 -0.1 0.4 80 1.2 N 9 13 5 7 - - 0.0
05/06:30am 3.1 -0.3 -0.7 76 1.4 N 7 11 4 6 - - 0.0
05/06:00am 4.2 0.8 -0.6 71 1.8 N 7 9 4 5 - - 0.0
05/05:30am 3.3 0.0 -0.9 74 1.5 NNE 6 9 3 5 - - 0.0
05/05:00am 2.3 -1.2 -1.0 79 1.2 N 7 9 4 5 - - 0.0
05/04:30am 4.7 0.5 -1.1 66 2.1 WNW 11 13 6 7 - - 0.0
05/04:00am 3.9 0.1 -0.9 71 1.8 NW 9 13 5 7 - - 0.0
05/03:30am 4.5 1.8 0.6 76 1.5 NW 4 6 2 3 - - 0.0
05/03:00am 4.0 1.2 -0.4 73 1.6 NW 4 6 2 3 - - 0.0
05/02:30am 3.5 1.6 0.4 80 1.2 CALM 0 4 0 2 - - 0.0
05/02:00am 4.1 1.4 0.6 78 1.3 SW 4 4 2 2 - - 0.0
05/01:30am 4.8 1.8 0.8 75 1.6 SW 6 7 3 4 - - 0.0
05/01:00am 5.0 1.9 0.4 72 1.8 SW 6 7 3 4 - - 0.0
05/12:30am 6.3 3.6 0.0 64 2.4 W 4 6 2 3 - - 0.0
05/12:00am 7.2 3.8 -0.5 58 3.0 SE 7 13 4 7 - - 0.0
 
Date/Time
EST
Temp
°C
App
Temp
°C
Dew
Point
°C
Rel
Hum
%
Delta-T
°C
Wind Press
QNH
hPa
Press
MSL
hPa
Rain since
9am
mm
Dir  Spd
km/h
Gust
km/h
Spd
kts
Gust
kts
04/11:30pm 7.0 3.8 -0.7 58 2.9 NE 6 7 3 4 - - 0.0
04/11:00pm 9.0 4.7 -1.4 48 4.0 WSW 11 15 6 8 - - 0.0
04/10:30pm 8.3 4.2 -0.4 54 3.4 W 11 17 6 9 - - 0.0
04/10:00pm 8.7 5.3 1.6 61 2.9 SW 9 11 5 6 - - 0.0
04/09:30pm 9.3 6.0 2.6 63 2.8 SW 9 13 5 7 - - 0.0
04/09:00pm 10.3 7.9 4.5 67 2.6 SW 6 9 3 5 - - 0.0
04/08:30pm 11.3 8.3 4.3 62 3.1 WSW 9 13 5 7 - - 0.0
04/08:00pm 12.1 8.5 5.0 62 3.3 NW 13 17 7 9 - - 0.0
04/07:30pm 13.5 11.8 4.1 53 4.3 W 2 11 1 6 - - 0.0
04/07:00pm 13.8 10.3 3.6 50 4.6 WNW 11 22 6 12 - - 0.0
04/06:30pm 14.0 11.5 4.0 51 4.6 NW 6 22 3 12 - - 0.0
04/06:00pm 14.4 11.9 3.5 48 4.9 NNW 6 9 3 5 - - 0.0
04/05:30pm 16.4 11.8 3.5 42 5.9 WNW 17 30 9 16 - - 0.0
04/05:00pm 17.4 13.4 3.0 38 6.6 WNW 13 30 7 16 - - 0.0
04/04:30pm 18.8 12.7 3.0 35 7.3 WNW 24 39 13 21 - - 0.0
04/04:00pm 19.8 13.2 2.2 31 8.1 WNW 26 41 14 22 - - 0.0
04/03:30pm 20.6 14.1 2.4 30 8.5 WNW 26 43 14 23 - - 0.0
04/03:00pm 21.6 16.0 3.3 30 8.7 WNW 22 32 12 17 - - 0.0
04/02:30pm 21.5 14.6 2.7 29 8.9 WNW 28 48 15 26 - - 0.0
04/02:27pm 21.5 14.6 2.7 29 8.9 WNW 28 48 15 26 - - 0.0
04/02:00pm 22.2 16.7 3.8 30 8.9 WNW 22 35 12 19 - - 0.0
04/01:30pm 22.5 16.1 5.4 33 8.6 WNW 28 43 15 23 - - 0.0
04/01:00pm 19.9 14.5 4.4 36 7.5 WNW 22 39 12 21 - - 0.0
04/12:30pm 19.6 13.7 4.1 36 7.4 WNW 24 41 13 22 - - 0.0
04/12:00pm 19.5 14.5 3.6 35 7.5 W 19 35 10 19 - - 0.0
04/11:30am 20.3 15.4 3.9 34 7.8 WNW 19 39 10 21 - - 0.0
04/11:00am 20.6 17.6 6.2 39 7.2 NNW 11 30 6 16 - - 0.0
04/10:30am 17.6 15.9 8.2 54 4.8 N 7 15 4 8 - - 0.0
04/10:00am 16.0 13.3 7.5 57 4.2 N 11 15 6 8 - - 0.0
04/09:30am 13.5 11.0 8.1 70 2.7 N 11 15 6 8 - - 0.0
04/09:00am 10.0 8.7 7.6 85 1.1 NNW 4 7 2 4 - - 0.0
04/08:30am 8.7 7.9 8.1 96 0.3 N 2 4 1 2 - - 0.0
04/08:00am 7.2 6.5 6.9 98 0.1 CALM 0 0 0 0 - - 0.0
04/07:30am 4.9 3.3 4.6 98 0.1 NE 2 4 1 2 - - 0.0
04/07:00am 4.7 3.5 4.4 98 0.1 CALM 0 0 0 0 - - 0.0
04/06:30am 3.6 2.2 3.3 98 0.1 CALM 0 0 0 0 - - 0.0
04/06:00am 4.6 2.6 4.3 98 0.1 SSE 4 6 2 3 - - 0.0
04/05:30am 4.6 3.3 4.3 98 0.1 CALM 0 2 0 1 - - 0.0
04/05:00am 5.3 4.2 5.0 98 0.1 CALM 0 0 0 0 - - 0.0
04/04:30am 4.7 2.7 4.4 98 0.1 E 4 4 2 2 - - 0.0
04/04:00am 5.1 3.9 4.7 97 0.2 CALM 0 0 0 0 - - 0.0
04/03:30am 5.7 3.9 5.4 98 0.1 S 4 4 2 2 - - 0.0
04/03:00am 5.9 4.1 5.6 98 0.1 SE 4 6 2 3 - - 0.0
04/02:30am 6.2 4.9 5.9 98 0.1 S 2 4 1 2 - - 0.0
04/02:00am 5.7 4.3 5.3 97 0.2 SW 2 2 1 1 - - 0.0
04/01:30am 6.3 4.5 5.6 95 0.3 S 4 6 2 3 - - 0.0
04/01:00am 7.5 6.8 7.1 97 0.2 CALM 0 0 0 0 - - 0.0
04/12:30am 7.7 7.0 7.1 96 0.3 CALM 0 2 0 1 - - 0.0
04/12:00am 8.4 7.4 7.5 94 0.4 SSW 2 4 1 2 - - 0.0
 
Date/Time
EST
Temp
°C
App
Temp
°C
Dew
Point
°C
Rel
Hum
%
Delta-T
°C
Wind Press
QNH
hPa
Press
MSL
hPa
Rain since
9am
mm
Dir  Spd
km/h
Gust
km/h
Spd
kts
Gust
kts
03/11:30pm 8.5 7.8 7.0 90 0.7 CALM 0 2 0 1 - - 0.0
03/11:00pm 9.4 8.4 7.5 88 0.9 SSE 2 4 1 2 - - 0.0
03/10:30pm 10.0 8.4 6.5 79 1.6 NNW 4 6 2 3 - - 0.0
03/10:00pm 10.2 7.9 7.3 82 1.4 NNW 9 9 5 5 - - 0.0
03/09:30pm 10.9 9.4 6.8 76 1.9 NW 4 6 2 3 - - 0.0
03/09:00pm 11.2 8.9 4.9 65 2.9 WNW 6 9 3 5 - - 0.0
03/08:30pm 11.5 8.9 4.0 60 3.4 NW 7 9 4 5 - - 0.0
03/08:00pm 13.5 11.2 4.9 56 4.0 NW 6 9 3 5 - - 0.0
03/07:30pm 15.8 13.1 2.9 42 5.8 WSW 6 7 3 4 - - 0.0
03/07:00pm 16.4 12.8 2.8 40 6.2 W 11 19 6 10 - - 0.0
03/06:30pm 16.7 12.2 2.3 38 6.5 WNW 15 20 8 11 - - 0.0
03/06:00pm 16.6 11.7 2.2 38 6.5 WNW 17 20 9 11 - - 0.0
03/05:30pm 16.9 12.5 2.5 38 6.5 WNW 15 20 8 11 - - 0.0
03/05:00pm 16.5 12.4 2.5 39 6.3 WNW 13 15 7 8 - - 0.0
03/04:30pm 17.5 14.8 5.4 45 5.8 NW 9 13 5 7 - - 0.0
03/04:00pm 19.4 18.1 9.3 52 5.3 NW 6 9 3 5 - - 0.0
03/03:30pm 19.9 19.4 9.2 50 5.7 SE 2 4 1 2 - - 0.0
03/03:00pm 20.1 19.2 9.4 50 5.7 SW 4 6 2 3 - - 0.0
03/02:30pm 20.3 19.5 8.3 46 6.3 SW 2 6 1 3 - - 0.0
03/02:00pm 20.0 18.6 7.1 43 6.6 NNW 4 6 2 3 - - 0.0
03/01:30pm 19.1 17.7 7.2 46 6.0 N 4 7 2 4 - - 0.0
03/01:00pm 18.3 17.1 8.0 51 5.3 NNW 4 9 2 5 - - 0.0
03/12:30pm 16.7 15.3 9.4 62 3.8 NW 7 9 4 5 - - 0.0
03/12:00pm 15.9 14.5 8.9 63 3.6 NNW 6 11 3 6 - - 0.0
03/11:30am 14.1 12.2 8.9 71 2.6 NW 9 13 5 7 - - 0.0
03/11:00am 13.2 11.6 8.1 71 2.5 NNW 6 9 3 5 - - 0.0
03/10:30am 11.9 10.3 8.6 80 1.6 N 7 9 4 5 - - 0.0
03/10:00am 10.6 9.1 8.4 86 1.1 NNW 6 9 3 5 - - 0.0
03/09:30am 9.4 8.6 8.0 91 0.7 N 2 4 1 2 - - 0.0
03/09:00am 8.1 7.0 7.0 93 0.5 NNW 2 6 1 3 - - 0.0
03/08:30am 7.0 5.9 6.7 98 0.1 N 2 4 1 2 - - 0.0
03/08:00am 5.9 4.9 5.6 98 0.1 CALM 0 0 0 0 - - 0.0
03/07:30am 4.4 3.1 4.1 98 0.1 CALM 0 0 0 0 - - 0.0
03/07:00am 3.2 0.9 2.9 98 0.1 SSE 4 4 2 2 - - 0.0
03/06:30am 3.5 1.7 3.2 98 0.1 S 2 4 1 2 - - 0.0
03/06:00am 3.8 1.6 3.5 98 0.1 S 4 6 2 3 - - 0.0
03/05:30am 4.1 2.0 3.8 98 0.1 SSW 4 4 2 2 - - 0.0
03/05:00am 4.8 3.6 4.5 98 0.1 CALM 0 4 0 2 - - 0.0
03/04:30am 5.4 4.3 5.1 98 0.1 CALM 0 0 0 0 - - 0.0
03/04:00am 5.4 3.9 5.1 98 0.1 WNW 2 2 1 1 - - 0.0
03/03:30am 5.4 3.9 5.1 98 0.1 S 2 4 1 2 - - 0.0
03/03:00am 5.0 3.8 4.7 98 0.1 CALM 0 0 0 0 - - 0.0
03/02:30am 6.2 5.3 5.9 98 0.1 CALM 0 0 0 0 - - 0.0
03/02:00am 6.1 5.1 5.8 98 0.1 CALM 0 0 0 0 - - 0.0
03/01:30am 6.3 5.4 6.0 98 0.1 CALM 0 0 0 0 - - 0.0
03/01:00am 6.6 5.4 6.3 98 0.1 SSW 2 4 1 2 - - 0.0
03/12:30am 7.0 5.5 6.7 98 0.1 S 4 4 2 2 - - 0.0
03/12:00am 7.3 6.2 7.0 98 0.1 S 2 4 1 2 - - 0.0
 
Date/Time
EST
Temp
°C
App
Temp
°C
Dew
Point
°C
Rel
Hum
%
Delta-T
°C
Wind Press
QNH
hPa
Press
MSL
hPa
Rain since
9am
mm
Dir  Spd
km/h
Gust
km/h
Spd
kts
Gust
kts
02/11:30pm 7.7 6.3 7.4 98 0.1 S 4 4 2 2 - - 0.0
02/11:00pm 8.0 7.5 7.7 98 0.1 CALM 0 0 0 0 - - 0.0
02/10:30pm 8.7 8.0 8.4 98 0.1 S 2 4 1 2 - - 0.0
02/10:00pm 8.7 8.3 8.4 98 0.1 CALM 0 0 0 0 - - 0.0
02/09:30pm 8.7 8.3 8.3 97 0.2 CALM 0 0 0 0 - - 0.0

Other formats

Comma delimited format used in spreadsheet applications
http://www.bom.gov.au/fwo/IDN60801/IDN60801.94763.axf

JavaScript Object Notation format (JSON) in row-major order
http://www.bom.gov.au/fwo/IDN60801/IDN60801.94763.json

Data quality

Most of these data are generated automatically and are frequently updated. Quality checks on data are not normally performed. It is possible for incorrect values to appear. Refer to information at About Latest Weather Observations and please check the disclaimer before using these data.